F/V Le Natif 2 — FKVW — position and weather

sailwx.info

Track history (hours):
 
Tides and Currents Weather Stations Pressure Air Temp Water Temp Dewpoint Dewpoint Depression Visibility Wind Speed Wind Dir Waves Ship Positions

F/V Le Natif 2

Last reported at 2018-Feb-25 19:30 UTC. Time now 2018-Feb-25 19:58 UTC.
Position N 44°39' W 001°29'.

Length 16 m.

Type: Fishing. MMSI: 228131600.

Date/timePositionNaut miles runAvg speedWind from/ knotsBaromVisibWave heightAir tempDewpointWater temp
2018-Feb-25 19:30N 44°39' W 001°29'2 3.3
2018-Feb-25 19:00N 44°40' W 001°29'2 3.3
2018-Feb-25 18:30N 44°42' W 001°30'2 3.2
2018-Feb-25 18:00N 44°44' W 001°30'2 3.2
2018-Feb-25 17:30N 44°45' W 001°31'2 3.2
2018-Feb-25 17:00N 44°47' W 001°31'2 3.4
2018-Feb-25 16:30N 44°48' W 001°31'1 2.6
2018-Feb-25 16:00N 44°50' W 001°30'2 3.7
2018-Feb-25 15:30N 44°52' W 001°30'  
2018-Feb-23 11:14N 46°09' W 001°49'2 8.5
2018-Feb-23 10:59N 46°11' W 001°49'4 8.5
2018-Feb-23 10:30N 46°15' W 001°51'4 8.5
2018-Feb-23 10:00N 46°19' W 001°52'4 8.4
2018-Feb-23 09:30N 46°23' W 001°54'4 8.6
2018-Feb-23 09:00N 46°27' W 001°55'4 8.9
2018-Feb-23 08:30N 46°32' W 001°56'4 8.8
2018-Feb-23 08:00N 46°36' W 001°57'4 8.7
2018-Feb-23 07:30N 46°40' W 001°57'2 3.3
2018-Feb-23 07:00N 46°42' W 001°57'0 0.0
2018-Feb-21 23:44N 46°42' W 001°57'0 0.4
2018-Feb-21 23:30N 46°42' W 001°56'0 0.0
2018-Feb-21 23:00N 46°42' W 001°56'2 4.8
2018-Feb-21 22:30N 46°39' W 001°57'4 8.9
2018-Feb-21 22:00N 46°35' W 001°56'4 8.6
2018-Feb-21 21:30N 46°31' W 001°55'4 8.6
2018-Feb-21 21:01N 46°27' W 001°53'4 8.5
2018-Feb-21 20:30N 46°22' W 001°52'4 8.5
2018-Feb-21 20:00N 46°18' W 001°51'4 8.3
2018-Feb-21 19:30N 46°14' W 001°50'4 8.1
2018-Feb-21 19:00N 46°10' W 001°49'4 8.0
2018-Feb-21 18:29N 46°06' W 001°47'4 7.9
2018-Feb-21 18:00N 46°02' W 001°46'  
2018-Feb-18 10:32N 46°03' W 001°42'1 8.2
2018-Feb-18 10:27N 46°04' W 001°43'5 8.2
2018-Feb-18 09:49N 46°09' W 001°45'3 8.4
2018-Feb-18 09:29N 46°11' W 001°47'4 8.6
2018-Feb-18 09:00N 46°15' W 001°49'4 8.3
2018-Feb-18 08:30N 46°19' W 001°51'4 8.4
2018-Feb-18 08:00N 46°23' W 001°53'4 8.3
2018-Feb-18 07:30N 46°27' W 001°54'4 8.1
2018-Feb-18 07:00N 46°31' W 001°55'4 8.0
2018-Feb-18 06:30N 46°35' W 001°56'4 7.9
2018-Feb-18 06:00N 46°39' W 001°57'3 5.8
2018-Feb-18 05:30N 46°42' W 001°57'0 0.0
2018-Feb-18 05:00N 46°42' W 001°57'  
Track history (hours):
 
Tides and Currents Weather Stations Pressure Air Temp Water Temp Dewpoint Dewpoint Depression Visibility Wind Speed Wind Dir Waves Ship Positions

F/V Le Natif 2

Last reported at 2018-Feb-25 19:30 UTC. Time now 2018-Feb-25 19:58 UTC.
Position N 44°39' W 001°29'.

Length 16 m.

Type: Fishing. MMSI: 228131600.

Date/timePositionNaut miles runAvg speedWind from/ knotsBaromVisibWave heightAir tempDewpointWater temp
2018-Feb-25 19:30N 44°39' W 001°29'2 3.3
2018-Feb-25 19:00N 44°40' W 001°29'2 3.3
2018-Feb-25 18:30N 44°42' W 001°30'2 3.2
2018-Feb-25 18:00N 44°44' W 001°30'2 3.2
2018-Feb-25 17:30N 44°45' W 001°31'2 3.2
2018-Feb-25 17:00N 44°47' W 001°31'2 3.4
2018-Feb-25 16:30N 44°48' W 001°31'1 2.6
2018-Feb-25 16:00N 44°50' W 001°30'2 3.7
2018-Feb-25 15:30N 44°52' W 001°30'  
2018-Feb-23 11:14N 46°09' W 001°49'2 8.5
2018-Feb-23 10:59N 46°11' W 001°49'4 8.5
2018-Feb-23 10:30N 46°15' W 001°51'4 8.5
2018-Feb-23 10:00N 46°19' W 001°52'4 8.4
2018-Feb-23 09:30N 46°23' W 001°54'4 8.6
2018-Feb-23 09:00N 46°27' W 001°55'4 8.9
2018-Feb-23 08:30N 46°32' W 001°56'4 8.8
2018-Feb-23 08:00N 46°36' W 001°57'4 8.7
2018-Feb-23 07:30N 46°40' W 001°57'2 3.3
2018-Feb-23 07:00N 46°42' W 001°57'0 0.0
2018-Feb-21 23:44N 46°42' W 001°57'0 0.4
2018-Feb-21 23:30N 46°42' W 001°56'0 0.0
2018-Feb-21 23:00N 46°42' W 001°56'2 4.8
2018-Feb-21 22:30N 46°39' W 001°57'4 8.9
2018-Feb-21 22:00N 46°35' W 001°56'4 8.6
2018-Feb-21 21:30N 46°31' W 001°55'4 8.6
2018-Feb-21 21:01N 46°27' W 001°53'4 8.5
2018-Feb-21 20:30N 46°22' W 001°52'4 8.5
2018-Feb-21 20:00N 46°18' W 001°51'4 8.3
2018-Feb-21 19:30N 46°14' W 001°50'4 8.1
2018-Feb-21 19:00N 46°10' W 001°49'4 8.0
2018-Feb-21 18:29N 46°06' W 001°47'4 7.9
2018-Feb-21 18:00N 46°02' W 001°46'  
2018-Feb-18 10:32N 46°03' W 001°42'1 8.2
2018-Feb-18 10:27N 46°04' W 001°43'5 8.2
2018-Feb-18 09:49N 46°09' W 001°45'3 8.4
2018-Feb-18 09:29N 46°11' W 001°47'4 8.6
2018-Feb-18 09:00N 46°15' W 001°49'4 8.3
2018-Feb-18 08:30N 46°19' W 001°51'4 8.4
2018-Feb-18 08:00N 46°23' W 001°53'4 8.3
2018-Feb-18 07:30N 46°27' W 001°54'4 8.1
2018-Feb-18 07:00N 46°31' W 001°55'4 8.0
2018-Feb-18 06:30N 46°35' W 001°56'4 7.9
2018-Feb-18 06:00N 46°39' W 001°57'3 5.8
2018-Feb-18 05:30N 46°42' W 001°57'0 0.0
2018-Feb-18 05:00N 46°42' W 001°57'  

Dump ship's entire track history